Terminal Aerodrome Forecast
Issued by NWS Sioux Falls, SD

Home | Current Version | Previous Version | Text Only | Print | Product List | Glossary Off
Versions: 1 2 3 4 5 6 7 8 9 10 11 12 13 14

000
FTUS43 KFSD 202326
TAFHON
TAF
KHON 202326Z 2100/2124 32015G25KT P6SM SCT200
     FM210200 32008KT P6SM SKC
     FM211700 34012KT P6SM SCT045=

USA.gov is the U.S. government's official web portal to all federal, state and local government web resources and services.